Terminal Aerodrome Forecast
Issued by NWS

Home | Current Version | Previous Version | Text Only | Print | Product List | Glossary Off
Versions: 1 2 3 4 5 6 7 8 9 10 11 12 13 14 15 16 17

000
FTUS43 KBIS 250338 AAA
TAFMOT
TAF AMD
KMOT 250338Z 2504/2524 11012KT P6SM SCT010
     FM250500 12009KT P6SM BKN010
     FM250700 13008KT 1SM BR BKN008
     FM250900 14009KT 3/4SM BR BKN007
     FM251100 15011G19KT 1 1/2SM BR BKN015 WS020/19035KT
     FM251700 16013KT P6SM BKN080=

USA.gov is the U.S. government's official web portal to all federal, state and local government web resources and services.